Terminal Aerodrome Forecast
Issued by NWS

Home | Current Version | Previous Version | Text Only | Print | Product List | Glossary On
Versions: 1 2 3 4 5 6 7 8 9 10 11 12 13 14 15 16 17 18 19 20 21
000
FTUS41 KBGM 201401 AAA
TAFELM
TAF AMD
KELM 201401Z 2014/2112 21004KT P6SM SCT040 WS020/25045KT
     FM201700 23010G18KT P6SM BKN070
     FM202300 20006KT P6SM SCT090 BKN150 WS020/23045KT=

USA.gov is the U.S. government's official web portal to all federal, state and local government web resources and services.